sensor_id;sensor_type;location;lat;lon;timestamp;pressure;altitude;pressure_sealevel;temperature;humidity
13604;BME280;24578;48.264;11.436;2023-03-03T00:00:50;96237.34;;;-1.33;100.00
13604;BME280;24578;48.264;11.436;2023-03-03T00:03:51;96223.91;;;-1.39;100.00
13604;BME280;24578;48.264;11.436;2023-03-03T00:06:51;96224.97;;;-1.47;100.00
13604;BME280;24578;48.264;11.436;2023-03-03T00:09:52;96230.78;;;-1.42;100.00
13604;BME280;24578;48.264;11.436;2023-03-03T00:12:53;96225.75;;;-1.44;100.00
13604;BME280;24578;48.264;11.436;2023-03-03T00:16:11;96223.31;;;-1.48;100.00
13604;BME280;24578;48.264;11.436;2023-03-03T00:19:15;96228.59;;;-1.56;100.00
13604;BME280;24578;48.264;11.436;2023-03-03T00:22:29;96232.94;;;-1.63;100.00
13604;BME280;24578;48.264;11.436;2023-03-03T00:25:32;96233.00;;;-1.64;100.00
13604;BME280;24578;48.264;11.436;2023-03-03T00:29:00;96226.06;;;-1.58;100.00
13604;BME280;24578;48.264;11.436;2023-03-03T00:32:24;96220.91;;;-1.55;100.00
13604;BME280;24578;48.264;11.436;2023-03-03T00:35:31;96229.34;;;-1.54;100.00
13604;BME280;24578;48.264;11.436;2023-03-03T00:38:34;96239.69;;;-1.60;100.00
13604;BME280;24578;48.264;11.436;2023-03-03T00:41:36;96231.19;;;-1.59;100.00
13604;BME280;24578;48.264;11.436;2023-03-03T00:44:42;96223.59;;;-1.61;100.00
13604;BME280;24578;48.264;11.436;2023-03-03T00:47:43;96224.47;;;-1.62;100.00
13604;BME280;24578;48.264;11.436;2023-03-03T00:50:43;96227.81;;;-1.60;100.00
13604;BME280;24578;48.264;11.436;2023-03-03T00:53:44;96229.47;;;-1.57;100.00
13604;BME280;24578;48.264;11.436;2023-03-03T00:56:44;96227.81;;;-1.60;100.00
13604;BME280;24578;48.264;11.436;2023-03-03T00:59:45;96239.81;;;-1.66;100.00
13604;BME280;24578;48.264;11.436;2023-03-03T01:02:45;96236.56;;;-1.72;100.00
13604;BME280;24578;48.264;11.436;2023-03-03T01:05:48;96232.38;;;-1.74;100.00
13604;BME280;24578;48.264;11.436;2023-03-03T01:08:49;96235.06;;;-1.80;100.00
13604;BME280;24578;48.264;11.436;2023-03-03T01:11:50;96235.78;;;-1.75;100.00
13604;BME280;24578;48.264;11.436;2023-03-03T01:14:51;96245.06;;;-1.74;100.00
13604;BME280;24578;48.264;11.436;2023-03-03T01:17:55;96234.09;;;-1.75;100.00
13604;BME280;24578;48.264;11.436;2023-03-03T01:20:56;96228.22;;;-1.78;100.00
13604;BME280;24578;48.264;11.436;2023-03-03T01:23:57;96225.69;;;-1.77;100.00
13604;BME280;24578;48.264;11.436;2023-03-03T01:26:58;96228.22;;;-1.78;100.00
13604;BME280;24578;48.264;11.436;2023-03-03T01:29:58;96226.69;;;-1.84;100.00
13604;BME280;24578;48.264;11.436;2023-03-03T01:33:00;96221.91;;;-1.96;100.00
13604;BME280;24578;48.264;11.436;2023-03-03T01:36:02;96215.84;;;-1.91;100.00
13604;BME280;24578;48.264;11.436;2023-03-03T01:39:03;96225.22;;;-1.94;100.00
13604;BME280;24578;48.264;11.436;2023-03-03T01:42:04;96220.03;;;-1.88;100.00
13604;BME280;24578;48.264;11.436;2023-03-03T01:45:31;96215.78;;;-1.88;100.00
13604;BME280;24578;48.264;11.436;2023-03-03T01:48:44;96219.06;;;-1.82;100.00
13604;BME280;24578;48.264;11.436;2023-03-03T01:51:51;96219.19;;;-1.89;100.00
13604;BME280;24578;48.264;11.436;2023-03-03T01:54:58;96212.50;;;-1.93;100.00
13604;BME280;24578;48.264;11.436;2023-03-03T01:58:06;96225.13;;;-1.90;100.00
13604;BME280;24578;48.264;11.436;2023-03-03T02:01:13;96218.38;;;-1.89;100.00
13604;BME280;24578;48.264;11.436;2023-03-03T02:04:17;96220.03;;;-1.88;100.00
13604;BME280;24578;48.264;11.436;2023-03-03T02:07:20;96228.47;;;-1.88;100.00
13604;BME280;24578;48.264;11.436;2023-03-03T02:10:22;96220.84;;;-1.88;100.00
13604;BME280;24578;48.264;11.436;2023-03-03T02:13:23;96226.78;;;-1.87;100.00
13604;BME280;24578;48.264;11.436;2023-03-03T02:16:24;96222.59;;;-1.90;100.00
13604;BME280;24578;48.264;11.436;2023-03-03T02:20:02;96230.13;;;-1.87;100.00
13604;BME280;24578;48.264;11.436;2023-03-03T02:26:28;96208.16;;;-1.88;100.00
13604;BME280;24578;48.264;11.436;2023-03-03T02:29:29;96214.91;;;-1.87;100.00
13604;BME280;24578;48.264;11.436;2023-03-03T02:32:30;96214.84;;;-1.85;100.00
13604;BME280;24578;48.264;11.436;2023-03-03T02:35:36;96210.81;;;-1.94;100.00
13604;BME280;24578;48.264;11.436;2023-03-03T02:42:02;96209.91;;;-1.90;100.00
13604;BME280;24578;48.264;11.436;2023-03-03T02:45:06;96204.03;;;-1.92;100.00
13604;BME280;24578;48.264;11.436;2023-03-03T02:48:07;96204.88;;;-1.91;100.00
13604;BME280;24578;48.264;11.436;2023-03-03T02:51:08;96199.84;;;-1.94;100.00
13604;BME280;24578;48.264;11.436;2023-03-03T02:54:10;96210.06;;;-1.97;100.00
13604;BME280;24578;48.264;11.436;2023-03-03T02:57:11;96215.19;;;-1.99;100.00
13604;BME280;24578;48.264;11.436;2023-03-03T03:00:12;96216.81;;;-1.96;100.00
13604;BME280;24578;48.264;11.436;2023-03-03T03:03:13;96217.75;;;-2.01;100.00
13604;BME280;24578;48.264;11.436;2023-03-03T03:06:14;96209.25;;;-1.98;100.00
13604;BME280;24578;48.264;11.436;2023-03-03T03:09:16;96210.94;;;-1.97;100.00
13604;BME280;24578;48.264;11.436;2023-03-03T03:12:17;96219.34;;;-1.95;100.00
13604;BME280;24578;48.264;11.436;2023-03-03T03:15:18;96208.22;;;-1.91;100.00
13604;BME280;24578;48.264;11.436;2023-03-03T03:18:19;96216.44;;;-1.79;100.00
13604;BME280;24578;48.264;11.436;2023-03-03T03:21:19;96212.69;;;-1.64;100.00
13604;BME280;24578;48.264;11.436;2023-03-03T03:24:20;96213.31;;;-1.55;100.00
13604;BME280;24578;48.264;11.436;2023-03-03T03:27:20;96210.09;;;-1.63;100.00
13604;BME280;24578;48.264;11.436;2023-03-03T03:30:22;96214.06;;;-1.51;100.00
13604;BME280;24578;48.264;11.436;2023-03-03T03:33:23;96208.75;;;-1.42;100.00
13604;BME280;24578;48.264;11.436;2023-03-03T03:36:24;96206.06;;;-1.35;100.00
13604;BME280;24578;48.264;11.436;2023-03-03T03:39:26;96199.84;;;-1.24;100.00
13604;BME280;24578;48.264;11.436;2023-03-03T03:42:26;96198.03;;;-1.18;100.00
13604;BME280;24578;48.264;11.436;2023-03-03T03:45:27;96213.25;;;-1.18;100.00
13604;BME280;24578;48.264;11.436;2023-03-03T03:48:27;96196.09;;;-1.10;100.00
13604;BME280;24578;48.264;11.436;2023-03-03T03:51:28;96217.22;;;-1.08;100.00
13604;BME280;24578;48.264;11.436;2023-03-03T03:54:29;96220.28;;;-0.95;100.00
13604;BME280;24578;48.264;11.436;2023-03-03T03:57:30;96215.00;;;-0.87;100.00
13604;BME280;24578;48.264;11.436;2023-03-03T04:00:31;96230.06;;;-0.81;100.00
13604;BME280;24578;48.264;11.436;2023-03-03T04:03:31;96228.44;;;-0.84;100.00
13604;BME280;24578;48.264;11.436;2023-03-03T04:06:32;96232.59;;;-0.81;100.00
13604;BME280;24578;48.264;11.436;2023-03-03T04:09:33;96227.38;;;-0.77;100.00
13604;BME280;24578;48.264;11.436;2023-03-03T04:12:34;96217.06;;;-0.70;100.00
13604;BME280;24578;48.264;11.436;2023-03-03T04:15:37;96217.72;;;-0.64;100.00
13604;BME280;24578;48.264;11.436;2023-03-03T04:18:38;96224.19;;;-0.53;100.00
13604;BME280;24578;48.264;11.436;2023-03-03T04:21:39;96224.09;;;-0.49;100.00
13604;BME280;24578;48.264;11.436;2023-03-03T04:24:41;96223.97;;;-0.46;100.00
13604;BME280;24578;48.264;11.436;2023-03-03T04:27:43;96217.84;;;-0.38;100.00
13604;BME280;24578;48.264;11.436;2023-03-03T04:30:44;96220.53;;;-0.43;100.00
13604;BME280;24578;48.264;11.436;2023-03-03T04:33:45;96209.50;;;-0.42;100.00
13604;BME280;24578;48.264;11.436;2023-03-03T04:36:45;96215.25;;;-0.37;100.00
13604;BME280;24578;48.264;11.436;2023-03-03T04:39:46;96221.41;;;-0.44;100.00
13604;BME280;24578;48.264;11.436;2023-03-03T04:42:46;96212.75;;;-0.38;100.00
13604;BME280;24578;48.264;11.436;2023-03-03T04:45:47;96208.25;;;-0.28;100.00
13604;BME280;24578;48.264;11.436;2023-03-03T04:48:47;96206.66;;;-0.33;100.00
13604;BME280;24578;48.264;11.436;2023-03-03T04:51:49;96214.81;;;-0.21;100.00
13604;BME280;24578;48.264;11.436;2023-03-03T04:54:49;96217.03;;;-0.10;100.00
13604;BME280;24578;48.264;11.436;2023-03-03T04:57:50;96205.97;;;-0.09;100.00
13604;BME280;24578;48.264;11.436;2023-03-03T05:00:55;96212.72;;;-0.08;100.00
13604;BME280;24578;48.264;11.436;2023-03-03T05:03:56;96209.47;;;-0.13;100.00
13604;BME280;24578;48.264;11.436;2023-03-03T05:06:57;96210.09;;;-0.05;100.00
13604;BME280;24578;48.264;11.436;2023-03-03T05:09:57;96218.63;;;-0.06;100.00
13604;BME280;24578;48.264;11.436;2023-03-03T05:12:58;96215.09;;;-0.02;100.00
13604;BME280;24578;48.264;11.436;2023-03-03T05:15:58;96207.41;;;-0.01;100.00
13604;BME280;24578;48.264;11.436;2023-03-03T05:18:59;96219.16;;;0.04;100.00
13604;BME280;24578;48.264;11.436;2023-03-03T05:22:00;96214.09;;;0.04;100.00
13604;BME280;24578;48.264;11.436;2023-03-03T05:25:01;96221.75;;;0.02;100.00
13604;BME280;24578;48.264;11.436;2023-03-03T05:28:01;96225.00;;;0.07;100.00
13604;BME280;24578;48.264;11.436;2023-03-03T05:31:04;96221.63;;;0.07;100.00
13604;BME280;24578;48.264;11.436;2023-03-03T05:34:04;96224.94;;;0.09;100.00
13604;BME280;24578;48.264;11.436;2023-03-03T05:37:05;96227.38;;;0.12;100.00
13604;BME280;24578;48.264;11.436;2023-03-03T05:40:08;96231.66;;;0.11;100.00
13604;BME280;24578;48.264;11.436;2023-03-03T05:43:09;96241.00;;;0.11;100.00
13604;BME280;24578;48.264;11.436;2023-03-03T05:46:10;96233.47;;;0.08;100.00
13604;BME280;24578;48.264;11.436;2023-03-03T05:49:11;96239.34;;;0.10;100.00
13604;BME280;24578;48.264;11.436;2023-03-03T05:52:11;96245.28;;;0.10;100.00
13604;BME280;24578;48.264;11.436;2023-03-03T05:55:12;96246.09;;;0.11;100.00
13604;BME280;24578;48.264;11.436;2023-03-03T05:58:12;96255.16;;;0.20;100.00
13604;BME280;24578;48.264;11.436;2023-03-03T06:01:13;96248.28;;;0.23;100.00
13604;BME280;24578;48.264;11.436;2023-03-03T06:04:13;96256.50;;;0.32;100.00
13604;BME280;24578;48.264;11.436;2023-03-03T06:07:14;96254.03;;;0.30;100.00
13604;BME280;24578;48.264;11.436;2023-03-03T06:10:15;96261.53;;;0.33;100.00
13604;BME280;24578;48.264;11.436;2023-03-03T06:13:15;96261.50;;;0.35;100.00
13604;BME280;24578;48.264;11.436;2023-03-03T06:16:16;96271.53;;;0.39;100.00
13604;BME280;24578;48.264;11.436;2023-03-03T06:19:17;96273.78;;;0.49;100.00
13604;BME280;24578;48.264;11.436;2023-03-03T06:22:18;96272.00;;;0.52;100.00
13604;BME280;24578;48.264;11.436;2023-03-03T06:25:18;96283.09;;;0.50;100.00
13604;BME280;24578;48.264;11.436;2023-03-03T06:28:19;96276.16;;;0.55;100.00
13604;BME280;24578;48.264;11.436;2023-03-03T06:31:20;96281.88;;;0.62;100.00
13604;BME280;24578;48.264;11.436;2023-03-03T06:34:21;96277.34;;;0.71;100.00
13604;BME280;24578;48.264;11.436;2023-03-03T06:37:21;96273.06;;;0.72;100.00
13604;BME280;24578;48.264;11.436;2023-03-03T06:40:22;96270.25;;;0.80;100.00
13604;BME280;24578;48.264;11.436;2023-03-03T06:43:22;96281.06;;;0.88;100.00
13604;BME280;24578;48.264;11.436;2023-03-03T06:46:23;96283.63;;;0.86;100.00
13604;BME280;24578;48.264;11.436;2023-03-03T06:49:24;96281.31;;;0.80;100.00
13604;BME280;24578;48.264;11.436;2023-03-03T06:52:26;96288.88;;;0.82;100.00
13604;BME280;24578;48.264;11.436;2023-03-03T06:55:27;96286.59;;;0.74;100.00
13604;BME280;24578;48.264;11.436;2023-03-03T06:58:27;96281.34;;;0.79;100.00
13604;BME280;24578;48.264;11.436;2023-03-03T07:01:34;96293.88;;;0.85;100.00
13604;BME280;24578;48.264;11.436;2023-03-03T07:04:35;96301.19;;;0.96;100.00
13604;BME280;24578;48.264;11.436;2023-03-03T07:07:36;96301.53;;;0.85;100.00
13604;BME280;24578;48.264;11.436;2023-03-03T07:10:37;96294.53;;;0.91;100.00
13604;BME280;24578;48.264;11.436;2023-03-03T07:13:45;96292.34;;;1.06;100.00
13604;BME280;24578;48.264;11.436;2023-03-03T07:16:51;96300.69;;;1.11;100.00
13604;BME280;24578;48.264;11.436;2023-03-03T07:19:55;96309.22;;;1.10;100.00
13604;BME280;24578;48.264;11.436;2023-03-03T07:22:57;96304.53;;;0.98;100.00
13604;BME280;24578;48.264;11.436;2023-03-03T07:25:57;96303.66;;;0.99;100.00
13604;BME280;24578;48.264;11.436;2023-03-03T07:29:25;96320.72;;;1.22;100.00
13604;BME280;24578;48.264;11.436;2023-03-03T07:32:39;96320.06;;;1.41;100.00
13604;BME280;24578;48.264;11.436;2023-03-03T07:35:43;96315.88;;;1.40;100.00
13604;BME280;24578;48.264;11.436;2023-03-03T07:38:55;96322.31;;;1.50;100.00
13604;BME280;24578;48.264;11.436;2023-03-03T07:42:15;96312.16;;;1.48;100.00
13604;BME280;24578;48.264;11.436;2023-03-03T07:45:31;96307.28;;;1.66;100.00
13604;BME280;24578;48.264;11.436;2023-03-03T07:48:41;96310.94;;;1.84;100.00
13604;BME280;24578;48.264;11.436;2023-03-03T07:51:42;96316.19;;;2.03;100.00
13604;BME280;24578;48.264;11.436;2023-03-03T07:54:44;96326.28;;;2.06;100.00
13604;BME280;24578;48.264;11.436;2023-03-03T07:57:45;96330.09;;;2.18;100.00
13604;BME280;24578;48.264;11.436;2023-03-03T08:04:43;96329.88;;;2.24;100.00
13604;BME280;24578;48.264;11.436;2023-03-03T08:07:49;96331.84;;;2.40;100.00
13604;BME280;24578;48.264;11.436;2023-03-03T08:10:54;96335.50;;;2.56;100.00
13604;BME280;24578;48.264;11.436;2023-03-03T08:13:55;96330.84;;;2.88;100.00
13604;BME280;24578;48.264;11.436;2023-03-03T08:16:57;96329.13;;;3.10;100.00
13604;BME280;24578;48.264;11.436;2023-03-03T08:19:57;96336.19;;;3.46;100.00
13604;BME280;24578;48.264;11.436;2023-03-03T08:22:58;96346.16;;;3.52;100.00
13604;BME280;24578;48.264;11.436;2023-03-03T08:25:59;96351.41;;;3.49;100.00
13604;BME280;24578;48.264;11.436;2023-03-03T08:28:59;96340.75;;;3.79;100.00
13604;BME280;24578;48.264;11.436;2023-03-03T08:32:00;96342.44;;;3.80;100.00
13604;BME280;24578;48.264;11.436;2023-03-03T08:35:01;96337.97;;;3.64;100.00
13604;BME280;24578;48.264;11.436;2023-03-03T08:38:02;96340.28;;;3.90;100.00
13604;BME280;24578;48.264;11.436;2023-03-03T08:41:03;96332.75;;;4.25;100.00
13604;BME280;24578;48.264;11.436;2023-03-03T08:44:03;96349.03;;;4.43;100.00
13604;BME280;24578;48.264;11.436;2023-03-03T08:47:04;96341.59;;;4.56;100.00
13604;BME280;24578;48.264;11.436;2023-03-03T08:50:05;96346.38;;;4.45;100.00
13604;BME280;24578;48.264;11.436;2023-03-03T08:53:06;96353.03;;;4.68;100.00
13604;BME280;24578;48.264;11.436;2023-03-03T08:56:07;96354.09;;;4.81;100.00
13604;BME280;24578;48.264;11.436;2023-03-03T08:59:09;96352.97;;;4.87;100.00
13604;BME280;24578;48.264;11.436;2023-03-03T09:02:10;96356.25;;;5.43;100.00
13604;BME280;24578;48.264;11.436;2023-03-03T09:05:12;96354.91;;;6.05;100.00
13604;BME280;24578;48.264;11.436;2023-03-03T09:08:13;96361.19;;;6.65;100.00
13604;BME280;24578;48.264;11.436;2023-03-03T09:11:20;96358.03;;;6.76;100.00
13604;BME280;24578;48.264;11.436;2023-03-03T09:14:27;96353.84;;;6.41;100.00
13604;BME280;24578;48.264;11.436;2023-03-03T09:17:34;96356.50;;;5.90;100.00
13604;BME280;24578;48.264;11.436;2023-03-03T09:23:42;96366.00;;;6.05;100.00
13604;BME280;24578;48.264;11.436;2023-03-03T09:26:47;96358.41;;;6.20;100.00
13604;BME280;24578;48.264;11.436;2023-03-03T09:29:48;96365.97;;;6.23;100.00
13604;BME280;24578;48.264;11.436;2023-03-03T09:32:48;96362.66;;;6.37;100.00
13604;BME280;24578;48.264;11.436;2023-03-03T09:35:57;96371.50;;;6.15;100.00
13604;BME280;24578;48.264;11.436;2023-03-03T09:39:21;96369.78;;;5.98;100.00
13604;BME280;24578;48.264;11.436;2023-03-03T09:46:13;96377.16;;;6.22;100.00
13604;BME280;24578;48.264;11.436;2023-03-03T09:52:34;96375.22;;;6.09;100.00
13604;BME280;24578;48.264;11.436;2023-03-03T10:02:34;96385.50;;;6.59;100.00
13604;BME280;24578;48.264;11.436;2023-03-03T10:12:15;96385.31;;;6.78;100.00
13604;BME280;24578;48.264;11.436;2023-03-03T10:19:00;96399.81;;;6.95;100.00
13604;BME280;24578;48.264;11.436;2023-03-03T10:25:42;96393.06;;;7.25;100.00
13604;BME280;24578;48.264;11.436;2023-03-03T10:28:52;96391.19;;;7.43;100.00
13604;BME280;24578;48.264;11.436;2023-03-03T10:32:23;96382.75;;;7.55;100.00
13604;BME280;24578;48.264;11.436;2023-03-03T10:42:09;96387.28;;;7.66;100.00
13604;BME280;24578;48.264;11.436;2023-03-03T10:45:48;96383.56;;;8.15;100.00
13604;BME280;24578;48.264;11.436;2023-03-03T10:50:02;96398.91;;;8.75;98.80
13604;BME280;24578;48.264;11.436;2023-03-03T11:06:20;96398.16;;;8.73;98.58
13604;BME280;24578;48.264;11.436;2023-03-03T11:09:49;96400.63;;;8.89;97.33
13604;BME280;24578;48.264;11.436;2023-03-03T11:13:13;96402.53;;;8.99;96.80
13604;BME280;24578;48.264;11.436;2023-03-03T11:26:06;96387.13;;;9.79;92.07
13604;BME280;24578;48.264;11.436;2023-03-03T11:35:28;96380.63;;;9.86;88.55
13604;BME280;24578;48.264;11.436;2023-03-03T11:38:44;96370.91;;;10.02;86.56
13604;BME280;24578;48.264;11.436;2023-03-03T11:52:18;96362.19;;;10.16;83.20
13604;BME280;24578;48.264;11.436;2023-03-03T11:55:29;96355.53;;;10.25;82.00
13604;BME280;24578;48.264;11.436;2023-03-03T11:58:50;96350.69;;;10.08;82.17
13604;BME280;24578;48.264;11.436;2023-03-03T12:02:04;96351.78;;;10.55;83.58
13604;BME280;24578;48.264;11.436;2023-03-03T12:05:34;96352.97;;;10.75;80.57
13604;BME280;24578;48.264;11.436;2023-03-03T12:12:16;96343.44;;;11.83;79.31
13604;BME280;24578;48.264;11.436;2023-03-03T12:25:37;96343.66;;;13.68;56.49
13604;BME280;24578;48.264;11.436;2023-03-03T12:29:01;96344.34;;;13.17;58.17
13604;BME280;24578;48.264;11.436;2023-03-03T12:32:21;96342.06;;;12.01;62.86
13604;BME280;24578;48.264;11.436;2023-03-03T12:39:19;96334.94;;;11.22;67.08
13604;BME280;24578;48.264;11.436;2023-03-03T12:46:02;96321.34;;;11.43;64.90
13604;BME280;24578;48.264;11.436;2023-03-03T12:49:04;96330.72;;;10.97;69.98
13604;BME280;24578;48.264;11.436;2023-03-03T13:06:06;96328.84;;;12.39;62.29
13604;BME280;24578;48.264;11.436;2023-03-03T13:16:03;96320.53;;;13.00;56.64
13604;BME280;24578;48.264;11.436;2023-03-03T13:19:19;96313.59;;;12.68;58.16
13604;BME280;24578;48.264;11.436;2023-03-03T13:22:58;96313.44;;;12.70;58.79
13604;BME280;24578;48.264;11.436;2023-03-03T13:29:57;96316.25;;;12.34;59.54
13604;BME280;24578;48.264;11.436;2023-03-03T13:33:09;96305.56;;;12.60;58.54
13604;BME280;24578;48.264;11.436;2023-03-03T13:36:17;96299.38;;;12.17;61.01
13604;BME280;24578;48.264;11.436;2023-03-03T13:39:47;96305.94;;;11.76;62.87
13604;BME280;24578;48.264;11.436;2023-03-03T13:43:03;96303.06;;;12.03;61.29
13604;BME280;24578;48.264;11.436;2023-03-03T14:00:29;96284.13;;;13.33;56.24
13604;BME280;24578;48.264;11.436;2023-03-03T14:06:40;96287.34;;;13.04;54.99
13604;BME280;24578;48.264;11.436;2023-03-03T14:10:19;96282.25;;;12.81;55.40
13604;BME280;24578;48.264;11.436;2023-03-03T14:13:30;96278.50;;;12.74;55.72
13604;BME280;24578;48.264;11.436;2023-03-03T14:19:49;96276.31;;;12.46;58.07
13604;BME280;24578;48.264;11.436;2023-03-03T14:23:15;96273.19;;;11.97;60.58
13604;BME280;24578;48.264;11.436;2023-03-03T14:26:17;96274.25;;;11.72;60.53
13604;BME280;24578;48.264;11.436;2023-03-03T14:32:27;96276.78;;;11.38;61.90
13604;BME280;24578;48.264;11.436;2023-03-03T14:35:37;96261.25;;;11.49;61.30
13604;BME280;24578;48.264;11.436;2023-03-03T14:38:40;96271.97;;;10.98;62.88
13604;BME280;24578;48.264;11.436;2023-03-03T14:41:43;96270.44;;;10.71;64.35
13604;BME280;24578;48.264;11.436;2023-03-03T14:44:53;96270.94;;;10.51;65.99
13604;BME280;24578;48.264;11.436;2023-03-03T14:47:54;96265.09;;;10.85;64.56
13604;BME280;24578;48.264;11.436;2023-03-03T14:51:22;96266.06;;;11.42;62.25
13604;BME280;24578;48.264;11.436;2023-03-03T14:54:27;96269.88;;;12.29;58.45
13604;BME280;24578;48.264;11.436;2023-03-03T15:00:35;96270.34;;;11.78;60.47
13604;BME280;24578;48.264;11.436;2023-03-03T15:03:35;96272.34;;;11.63;60.89
13604;BME280;24578;48.264;11.436;2023-03-03T15:06:44;96276.59;;;11.05;64.40
13604;BME280;24578;48.264;11.436;2023-03-03T15:09:49;96271.13;;;10.97;64.85
13604;BME280;24578;48.264;11.436;2023-03-03T15:12:49;96279.44;;;10.54;66.39
13604;BME280;24578;48.264;11.436;2023-03-03T15:19:17;96279.38;;;9.79;70.30
13604;BME280;24578;48.264;11.436;2023-03-03T15:22:51;96291.16;;;9.44;74.51
13604;BME280;24578;48.264;11.436;2023-03-03T15:32:57;96298.09;;;9.44;72.34
13604;BME280;24578;48.264;11.436;2023-03-03T15:36:14;96292.94;;;8.91;77.00
13604;BME280;24578;48.264;11.436;2023-03-03T15:42:32;96295.38;;;8.52;81.90
13604;BME280;24578;48.264;11.436;2023-03-03T15:46:01;96298.94;;;8.64;81.36
13604;BME280;24578;48.264;11.436;2023-03-03T15:52:30;96297.88;;;8.39;84.48
13604;BME280;24578;48.264;11.436;2023-03-03T15:56:05;96296.22;;;8.38;83.71
13604;BME280;24578;48.264;11.436;2023-03-03T15:59:17;96295.41;;;8.37;83.76
13604;BME280;24578;48.264;11.436;2023-03-03T16:02:25;96297.84;;;8.53;82.54
13604;BME280;24578;48.264;11.436;2023-03-03T16:05:45;96294.97;;;8.58;82.58
13604;BME280;24578;48.264;11.436;2023-03-03T16:12:03;96294.75;;;8.48;83.80
13604;BME280;24578;48.264;11.436;2023-03-03T16:18:40;96299.47;;;8.13;88.38
13604;BME280;24578;48.264;11.436;2023-03-03T16:21:55;96301.56;;;8.20;87.29
13604;BME280;24578;48.264;11.436;2023-03-03T16:28:49;96304.00;;;8.09;87.75
13604;BME280;24578;48.264;11.436;2023-03-03T16:38:39;96306.19;;;7.43;96.03
13604;BME280;24578;48.264;11.436;2023-03-03T16:41:49;96312.31;;;7.26;97.61
13604;BME280;24578;48.264;11.436;2023-03-03T16:51:10;96332.63;;;6.69;100.00
13604;BME280;24578;48.264;11.436;2023-03-03T16:58:09;96336.63;;;6.59;100.00
13604;BME280;24578;48.264;11.436;2023-03-03T17:01:38;96334.69;;;6.47;100.00
13604;BME280;24578;48.264;11.436;2023-03-03T17:04:53;96344.50;;;6.24;100.00
13604;BME280;24578;48.264;11.436;2023-03-03T17:21:36;96355.38;;;5.78;100.00
13604;BME280;24578;48.264;11.436;2023-03-03T17:31:30;96363.91;;;5.45;100.00
13604;BME280;24578;48.264;11.436;2023-03-03T17:38:16;96376.19;;;5.21;100.00
13604;BME280;24578;48.264;11.436;2023-03-03T17:48:37;96378.84;;;4.82;100.00
13604;BME280;24578;48.264;11.436;2023-03-03T17:55:30;96395.44;;;4.56;100.00
13604;BME280;24578;48.264;11.436;2023-03-03T18:08:39;96395.63;;;4.13;100.00
13604;BME280;24578;48.264;11.436;2023-03-03T18:15:35;96396.47;;;3.93;100.00
13604;BME280;24578;48.264;11.436;2023-03-03T18:25:13;96413.91;;;3.64;100.00
13604;BME280;24578;48.264;11.436;2023-03-03T18:28:20;96418.34;;;3.60;100.00
13604;BME280;24578;48.264;11.436;2023-03-03T18:31:26;96413.41;;;3.56;100.00
13604;BME280;24578;48.264;11.436;2023-03-03T18:34:37;96409.56;;;3.45;100.00
13604;BME280;24578;48.264;11.436;2023-03-03T18:37:41;96413.31;;;3.37;100.00
13604;BME280;24578;48.264;11.436;2023-03-03T18:44:26;96422.38;;;3.23;100.00
13604;BME280;24578;48.264;11.436;2023-03-03T18:51:07;96433.19;;;3.09;100.00
13604;BME280;24578;48.264;11.436;2023-03-03T18:57:14;96434.50;;;2.97;100.00
13604;BME280;24578;48.264;11.436;2023-03-03T19:00:28;96433.81;;;2.92;100.00
13604;BME280;24578;48.264;11.436;2023-03-03T19:12:56;96445.22;;;2.61;100.00
13604;BME280;24578;48.264;11.436;2023-03-03T19:19:11;96445.56;;;2.52;100.00
13604;BME280;24578;48.264;11.436;2023-03-03T19:22:27;96457.72;;;2.45;100.00
13604;BME280;24578;48.264;11.436;2023-03-03T19:25:30;96460.50;;;2.39;100.00
13604;BME280;24578;48.264;11.436;2023-03-03T19:28:51;96449.75;;;2.29;100.00
13604;BME280;24578;48.264;11.436;2023-03-03T20:02:36;96471.38;;;1.70;100.00
13604;BME280;24578;48.264;11.436;2023-03-03T20:05:54;96465.59;;;1.64;100.00
13604;BME280;24578;48.264;11.436;2023-03-03T20:16:47;96478.13;;;1.45;100.00
13604;BME280;24578;48.264;11.436;2023-03-03T20:36:55;96475.88;;;1.08;100.00
13604;BME280;24578;48.264;11.436;2023-03-03T20:40:19;96471.69;;;1.05;100.00
13604;BME280;24578;48.264;11.436;2023-03-03T20:53:47;96480.09;;;0.80;100.00
13604;BME280;24578;48.264;11.436;2023-03-03T21:00:12;96489.34;;;0.83;100.00
13604;BME280;24578;48.264;11.436;2023-03-03T21:03:38;96484.09;;;0.87;100.00
13604;BME280;24578;48.264;11.436;2023-03-03T21:06:41;96480.88;;;0.82;100.00
13604;BME280;24578;48.264;11.436;2023-03-03T21:09:41;96480.44;;;0.68;100.00
13604;BME280;24578;48.264;11.436;2023-03-03T21:12:42;96487.44;;;0.61;100.00
13604;BME280;24578;48.264;11.436;2023-03-03T21:15:42;96479.97;;;0.55;100.00
13604;BME280;24578;48.264;11.436;2023-03-03T21:19:04;96477.34;;;0.56;100.00
13604;BME280;24578;48.264;11.436;2023-03-03T21:22:08;96483.50;;;0.49;100.00
13604;BME280;24578;48.264;11.436;2023-03-03T21:28:57;96499.00;;;0.41;100.00
13604;BME280;24578;48.264;11.436;2023-03-03T21:32:06;96492.13;;;0.45;100.00
13604;BME280;24578;48.264;11.436;2023-03-03T21:35:13;96493.94;;;0.40;100.00
13604;BME280;24578;48.264;11.436;2023-03-03T21:38:31;96500.59;;;0.45;100.00
13604;BME280;24578;48.264;11.436;2023-03-03T21:42:03;96498.09;;;0.44;100.00
13604;BME280;24578;48.264;11.436;2023-03-03T21:45:12;96495.72;;;0.38;100.00
13604;BME280;24578;48.264;11.436;2023-03-03T21:48:13;96503.47;;;0.33;100.00
13604;BME280;24578;48.264;11.436;2023-03-03T21:51:13;96502.81;;;0.26;100.00
13604;BME280;24578;48.264;11.436;2023-03-03T21:54:14;96502.09;;;0.21;100.00
13604;BME280;24578;48.264;11.436;2023-03-03T21:57:15;96483.50;;;0.19;100.00
13604;BME280;24578;48.264;11.436;2023-03-03T22:00:16;96497.91;;;0.19;100.00
13604;BME280;24578;48.264;11.436;2023-03-03T22:03:17;96502.13;;;0.20;100.00
13604;BME280;24578;48.264;11.436;2023-03-03T22:06:20;96498.03;;;0.16;100.00